Wenceslau Braz, Brazil
Current Conditions -  °F | °C
As of 9:00 AM on Wednesday 26 Nov 2014 (Local Time) from SBLO Reporting Station
Haze Haze  
Wind Chill: 72°   Ceiling: 500
Heat Index: 72°   Visibility: 1.5mi
Dew Point: 70°   Wind: 2mph
Humidity: 94%   Direction: 200°SSW
Pressure: 29.85"   Gusts: NA
Location:  23.87°S, 49.8°W
Report Text: SBLO 261100Z 20002KT 2500 BR SCT004 BKN005 22/21 Q1011
Loading
Personal Weather Stations






























Interactive Weather Map New forecast layout! Learn more

10-Day Weather Forecast

Advertisements
Track Severe Weather on mobile